createdAt,value
2023-05-02T04:15:18.389Z,42.90
2023-05-02T04:16:18.452Z,40.00
2023-05-02T04:17:18.609Z,40.50
2023-05-02T04:18:18.433Z,39.10
2023-05-02T04:19:18.326Z,40.20
2023-05-02T04:20:18.357Z,43.20
2023-05-02T04:21:18.318Z,37.90
2023-05-02T04:22:18.292Z,38.90
2023-05-02T04:23:18.282Z,41.60
2023-05-02T04:24:18.277Z,41.70
2023-05-02T04:25:18.263Z,42.00
2023-05-02T04:26:18.268Z,39.60
2023-05-02T04:27:18.223Z,38.80
2023-05-02T04:28:18.231Z,42.80
2023-05-02T04:29:18.221Z,44.80
2023-05-02T04:30:18.203Z,37.50
2023-05-02T04:31:18.287Z,39.20
2023-05-02T04:32:18.184Z,39.70
2023-05-02T04:33:18.153Z,42.30
2023-05-02T04:34:18.142Z,38.70
2023-05-02T04:35:18.123Z,38.30
2023-05-02T04:36:18.142Z,39.90
2023-05-02T04:37:18.096Z,37.50
2023-05-02T04:38:18.088Z,38.40
2023-05-02T04:39:18.060Z,38.50
2023-05-02T04:40:18.065Z,36.30
2023-05-02T04:41:18.048Z,40.10
2023-05-02T04:42:18.035Z,31.90
2023-05-02T04:43:18.008Z,35.60
2023-05-02T04:44:18.007Z,39.00
2023-05-02T04:45:17.980Z,40.40
2023-05-02T04:46:18.085Z,34.60
2023-05-02T04:47:17.986Z,25.70
2023-05-02T04:48:17.976Z,17.00
2023-05-02T04:49:17.930Z,14.60
2023-05-02T04:50:17.920Z,8.90
2023-05-02T04:51:17.925Z,10.30
2023-05-02T04:52:17.889Z,12.50
2023-05-02T04:53:17.879Z,8.60
2023-05-02T04:54:17.863Z,9.50
2023-05-02T04:55:17.859Z,7.90
2023-05-02T04:56:17.873Z,7.30
2023-05-02T04:57:17.825Z,6.30
2023-05-02T04:58:17.805Z,7.40
2023-05-02T04:59:17.811Z,9.60
2023-05-02T05:00:17.787Z,8.30
2023-05-02T05:01:17.815Z,6.40
2023-05-02T05:02:17.947Z,7.60
2023-05-02T05:03:17.888Z,7.70
2023-05-02T05:04:17.777Z,9.20
2023-05-02T05:05:17.734Z,6.80
2023-05-02T05:06:17.767Z,8.40
2023-05-02T05:07:17.700Z,7.70
2023-05-02T05:08:17.684Z,7.90
2023-05-02T05:09:17.667Z,7.20
2023-05-02T05:10:17.657Z,10.20
2023-05-02T05:11:17.668Z,9.70
2023-05-02T05:12:17.639Z,10.40
2023-05-02T05:13:17.616Z,10.80
2023-05-02T05:14:17.602Z,8.00
2023-05-02T05:15:17.597Z,10.80
2023-05-02T05:16:17.619Z,6.70
2023-05-02T05:17:17.574Z,11.20
2023-05-02T05:18:17.553Z,10.90
2023-05-02T05:19:17.551Z,10.30
2023-05-02T05:20:17.515Z,8.40
2023-05-02T05:21:17.524Z,7.70
2023-05-02T05:22:17.494Z,10.40
2023-05-02T05:23:17.478Z,8.40
2023-05-02T05:24:17.470Z,10.40
2023-05-02T05:25:17.464Z,8.70
2023-05-02T05:26:17.472Z,8.10
2023-05-02T05:27:17.436Z,9.10
2023-05-02T05:28:17.438Z,6.20
2023-05-02T05:29:17.405Z,9.10
2023-05-02T05:30:17.394Z,8.70
2023-05-02T05:31:17.435Z,8.80
2023-05-02T05:32:17.362Z,8.20
2023-05-02T05:33:17.427Z,9.20
2023-05-02T05:34:17.400Z,8.00
2023-05-02T05:35:17.322Z,9.40
2023-05-02T05:36:17.397Z,7.10
2023-05-02T05:37:17.295Z,10.00
2023-05-02T05:38:17.275Z,8.00
2023-05-02T05:39:17.271Z,8.90
2023-05-02T05:40:17.264Z,5.20
2023-05-02T05:41:17.258Z,8.60
2023-05-02T05:42:17.227Z,10.40
2023-05-02T05:43:17.215Z,5.90
2023-05-02T05:44:17.201Z,9.80
2023-05-02T05:45:17.306Z,6.80
2023-05-02T05:46:17.184Z,7.60
2023-05-02T05:47:17.244Z,7.10
2023-05-02T05:48:17.198Z,9.00
2023-05-02T05:49:17.137Z,14.50
2023-05-02T05:50:17.131Z,4.70
2023-05-02T05:51:17.145Z,6.50
2023-05-02T05:52:17.093Z,8.10
2023-05-02T05:53:17.081Z,8.30
2023-05-02T05:54:17.063Z,8.00
2023-05-02T05:55:17.055Z,7.70
2023-05-02T05:56:17.058Z,8.70
2023-05-02T05:57:17.032Z,7.90
2023-05-02T05:58:17.012Z,8.60
2023-05-02T05:59:17.001Z,6.70
2023-05-02T06:00:16.995Z,9.30
2023-05-02T06:01:17.002Z,7.70
2023-05-02T06:02:16.997Z,6.90
2023-05-02T06:03:17.049Z,4.50
2023-05-02T06:04:16.948Z,5.30
2023-05-02T06:05:16.925Z,5.20
2023-05-02T06:06:16.988Z,9.60
2023-05-02T06:07:16.899Z,8.10
2023-05-02T06:08:16.884Z,6.60
2023-05-02T06:09:16.876Z,7.70
2023-05-02T06:10:16.863Z,7.00
2023-05-02T06:11:16.875Z,7.90
2023-05-02T06:12:16.886Z,9.00
2023-05-02T06:13:16.828Z,6.50
2023-05-02T06:14:16.876Z,8.90
2023-05-02T06:15:16.820Z,5.40
2023-05-02T06:16:16.846Z,8.80
2023-05-02T06:17:16.773Z,10.00
2023-05-02T06:18:16.770Z,7.10
2023-05-02T06:19:16.742Z,4.20
2023-05-02T06:20:18.620Z,6.20
2023-05-02T06:21:16.728Z,5.80
2023-05-02T06:22:16.701Z,4.40
2023-05-02T06:23:16.692Z,7.60
2023-05-02T06:24:16.671Z,6.40
2023-05-02T06:25:16.674Z,8.30
2023-05-02T06:26:16.663Z,8.00
2023-05-02T06:27:16.636Z,9.40
2023-05-02T06:28:16.625Z,6.50
2023-05-02T06:29:16.613Z,4.70
2023-05-02T06:30:16.591Z,5.20
2023-05-02T06:31:16.659Z,6.20
2023-05-02T06:32:16.570Z,5.20
2023-05-02T06:33:16.609Z,3.90
2023-05-02T06:34:16.537Z,4.10
2023-05-02T06:35:16.538Z,4.10
2023-05-02T06:36:16.527Z,5.40
2023-05-02T06:37:16.504Z,3.20
2023-05-02T06:38:16.492Z,5.40
2023-05-02T06:39:16.479Z,3.10
2023-05-02T06:40:16.461Z,2.90
2023-05-02T06:41:18.133Z,5.60
2023-05-02T06:42:16.438Z,2.00
2023-05-02T06:43:16.433Z,4.20
2023-05-02T06:44:16.422Z,3.00
2023-05-02T06:45:16.413Z,3.30
2023-05-02T06:46:16.431Z,5.60
2023-05-02T06:47:16.436Z,4.30
2023-05-02T06:48:16.398Z,5.00
2023-05-02T06:49:16.356Z,4.40
2023-05-02T06:50:16.336Z,3.60
2023-05-02T06:51:16.354Z,5.80
2023-05-02T06:52:16.336Z,5.00
2023-05-02T06:53:16.303Z,9.20
2023-05-02T06:54:16.310Z,6.90
2023-05-02T06:55:16.279Z,8.90
2023-05-02T06:56:16.271Z,6.80
2023-05-02T06:57:16.274Z,6.80
2023-05-02T06:58:16.250Z,6.50
2023-05-02T06:59:16.219Z,7.60
2023-05-02T07:00:16.201Z,8.50
2023-05-02T07:01:16.384Z,9.90
2023-05-02T07:02:16.178Z,8.70
2023-05-02T07:03:16.170Z,7.70
2023-05-02T07:04:16.189Z,7.10
2023-05-02T07:05:16.143Z,7.20
2023-05-02T07:06:16.170Z,10.30
2023-05-02T07:07:16.123Z,8.00
2023-05-02T07:08:16.103Z,9.90
2023-05-02T07:09:16.101Z,9.60
2023-05-02T07:10:16.074Z,9.30
2023-05-02T07:11:16.090Z,10.70
2023-05-02T07:12:16.051Z,11.00
2023-05-02T07:13:16.034Z,10.90
2023-05-02T07:14:16.022Z,9.20
2023-05-02T07:15:16.002Z,10.50
2023-05-02T07:16:16.045Z,11.80
2023-05-02T07:17:15.998Z,8.80
2023-05-02T07:18:16.024Z,10.00
2023-05-02T07:19:15.978Z,9.20
2023-05-02T07:20:15.963Z,13.30
2023-05-02T07:21:15.947Z,9.80
2023-05-02T07:22:15.924Z,9.80
2023-05-02T07:23:15.907Z,12.70
2023-05-02T07:24:15.898Z,13.40
2023-05-02T07:25:15.877Z,14.90
2023-05-02T07:26:15.890Z,13.80
2023-05-02T07:27:15.863Z,17.90
2023-05-02T07:28:15.839Z,13.40
2023-05-02T07:29:15.822Z,14.10
2023-05-02T07:30:15.821Z,11.90
2023-05-02T07:31:18.270Z,15.70
2023-05-02T07:32:15.840Z,14.80
2023-05-02T07:33:15.867Z,9.30
2023-05-02T07:34:15.776Z,12.60
2023-05-02T07:35:15.765Z,11.40
2023-05-02T07:36:15.756Z,12.20
2023-05-02T07:37:15.726Z,10.60
2023-05-02T07:38:15.714Z,15.90
2023-05-02T07:39:15.702Z,16.80
2023-05-02T07:40:15.690Z,13.30
2023-05-02T07:41:15.682Z,11.50
2023-05-02T07:42:15.665Z,14.20
2023-05-02T07:43:15.643Z,15.10
2023-05-02T07:44:15.635Z,16.10
2023-05-02T07:45:15.625Z,12.80
2023-05-02T07:46:15.665Z,15.00
2023-05-02T07:47:15.593Z,12.00
2023-05-02T07:48:15.658Z,12.00
2023-05-02T07:49:15.583Z,18.40
2023-05-02T07:50:15.556Z,13.30
2023-05-02T07:51:15.563Z,12.00
2023-05-02T07:52:15.534Z,16.20
2023-05-02T07:53:15.520Z,14.60
2023-05-02T07:54:15.521Z,11.50
2023-05-02T07:55:15.504Z,12.20
2023-05-02T07:56:15.496Z,7.70
2023-05-02T07:57:15.478Z,12.70
2023-05-02T07:58:15.459Z,11.90
2023-05-02T07:59:15.529Z,10.50
2023-05-02T08:00:15.453Z,8.10
2023-05-02T08:01:15.454Z,8.30
2023-05-02T08:02:15.447Z,10.80
2023-05-02T08:03:15.503Z,13.10
2023-05-02T08:04:15.736Z,8.50
2023-05-02T08:05:15.516Z,15.20
2023-05-02T08:06:15.407Z,11.30
2023-05-02T08:07:15.342Z,10.90
2023-05-02T08:08:15.333Z,10.30
2023-05-02T08:09:15.320Z,11.10
2023-05-02T08:10:15.317Z,10.70
2023-05-02T08:11:15.310Z,12.30
2023-05-02T08:12:15.279Z,9.00
2023-05-02T08:13:15.263Z,12.10
2023-05-02T08:14:15.259Z,13.20
2023-05-02T08:15:15.235Z,12.40
2023-05-02T08:16:15.309Z,13.10
2023-05-02T08:17:15.209Z,16.70
2023-05-02T08:18:15.283Z,14.50
2023-05-02T08:19:15.180Z,12.20
2023-05-02T08:20:15.179Z,13.20
2023-05-02T08:21:15.175Z,10.70
2023-05-02T08:22:15.159Z,11.40
2023-05-02T08:23:15.131Z,11.30
2023-05-02T08:24:15.130Z,13.30
2023-05-02T08:25:15.101Z,10.40
2023-05-02T08:26:15.133Z,11.20
2023-05-02T08:27:15.072Z,14.60
2023-05-02T08:28:15.072Z,9.00
2023-05-02T08:29:15.060Z,12.40
2023-05-02T08:30:15.044Z,11.10
2023-05-02T08:31:15.061Z,9.80
2023-05-02T08:32:15.084Z,11.90
2023-05-02T08:33:15.052Z,11.40
2023-05-02T08:34:15.000Z,14.60
2023-05-02T08:35:14.971Z,18.90
2023-05-02T08:36:14.991Z,14.40
2023-05-02T08:37:14.954Z,15.00
2023-05-02T08:38:14.950Z,13.60
2023-05-02T08:39:14.924Z,15.10
2023-05-02T08:40:14.914Z,14.40
2023-05-02T08:41:14.912Z,13.60
2023-05-02T08:42:14.936Z,18.10
2023-05-02T08:43:14.868Z,15.40
2023-05-02T08:44:14.863Z,12.90
2023-05-02T08:45:16.559Z,13.60
2023-05-02T08:46:14.852Z,15.60
2023-05-02T08:47:15.133Z,12.60
2023-05-02T08:48:14.831Z,17.30
2023-05-02T08:49:14.796Z,16.20
2023-05-02T08:50:14.793Z,14.60
2023-05-02T08:51:14.788Z,9.80
2023-05-02T08:52:14.757Z,11.90
2023-05-02T08:53:14.779Z,11.70
2023-05-02T08:54:14.741Z,14.50
2023-05-02T08:55:14.717Z,8.90
2023-05-02T08:56:14.730Z,11.80
2023-05-02T08:57:14.708Z,11.80
2023-05-02T08:58:15.519Z,12.70
2023-05-02T08:59:14.799Z,12.10
2023-05-02T09:00:14.674Z,8.70
2023-05-02T09:01:14.690Z,9.60
2023-05-02T09:02:14.635Z,12.00
2023-05-02T09:03:14.638Z,11.90
2023-05-02T09:04:14.630Z,8.20
2023-05-02T09:05:14.598Z,10.70
2023-05-02T09:06:14.646Z,9.10
2023-05-02T09:07:14.568Z,9.90
2023-05-02T09:08:14.552Z,7.80
2023-05-02T09:09:14.542Z,8.30
2023-05-02T09:10:14.519Z,8.80
2023-05-02T09:11:14.532Z,7.40
2023-05-02T09:12:14.498Z,9.20
2023-05-02T09:13:14.493Z,10.60
2023-05-02T09:14:14.475Z,8.00
2023-05-02T09:15:14.457Z,10.70
2023-05-02T09:16:14.504Z,10.40
2023-05-02T09:17:14.436Z,15.60
2023-05-02T09:18:14.416Z,9.40
2023-05-02T09:19:14.475Z,10.70
2023-05-02T09:20:14.396Z,12.30
2023-05-02T09:21:14.383Z,6.50
2023-05-02T09:22:14.387Z,5.50
2023-05-02T09:23:14.355Z,11.40
2023-05-02T09:24:14.347Z,10.80
2023-05-02T09:25:14.343Z,10.40
2023-05-02T09:26:14.320Z,9.70
2023-05-02T09:27:14.326Z,10.60
2023-05-02T09:28:14.323Z,7.90
2023-05-02T09:29:14.280Z,7.20
2023-05-02T09:30:14.264Z,8.80
2023-05-02T09:31:15.519Z,4.70
2023-05-02T09:32:14.324Z,12.40
2023-05-02T09:33:14.327Z,7.40
2023-05-02T09:34:14.219Z,10.90
2023-05-02T09:35:14.218Z,11.20
2023-05-02T09:36:14.333Z,4.60
2023-05-02T09:37:14.211Z,9.90
2023-05-02T09:38:14.162Z,8.90
2023-05-02T09:39:14.159Z,5.10
2023-05-02T09:40:14.136Z,6.80
2023-05-02T09:41:14.161Z,6.90
2023-05-02T09:42:14.114Z,7.60
2023-05-02T09:43:14.093Z,7.50
2023-05-02T09:44:14.084Z,3.40
2023-05-02T09:45:14.090Z,6.10
2023-05-02T09:46:14.107Z,6.20
2023-05-02T09:47:14.045Z,11.40
2023-05-02T09:48:14.026Z,6.90
2023-05-02T09:49:14.019Z,4.70
2023-05-02T09:50:14.031Z,5.20
2023-05-02T09:51:14.013Z,7.40
2023-05-02T09:52:13.981Z,7.80
2023-05-02T09:53:13.984Z,7.10
2023-05-02T09:54:13.968Z,9.60
2023-05-02T09:55:13.945Z,4.70
2023-05-02T09:56:13.941Z,6.70
2023-05-02T09:57:13.922Z,7.50
2023-05-02T09:58:13.898Z,6.60
2023-05-02T09:59:13.892Z,7.20
2023-05-02T10:00:13.883Z,4.80
2023-05-02T10:01:13.943Z,9.00
2023-05-02T10:02:13.849Z,8.20
2023-05-02T10:03:13.893Z,5.50
2023-05-02T10:04:14.248Z,6.70
2023-05-02T10:05:13.813Z,6.50
2023-05-02T10:06:13.837Z,6.70
2023-05-02T10:07:13.787Z,8.30
2023-05-02T10:08:13.772Z,6.10
2023-05-02T10:09:18.185Z,9.80
2023-05-02T10:10:14.746Z,7.60
2023-05-02T10:11:13.760Z,7.80
2023-05-02T10:12:13.735Z,6.80
2023-05-02T10:13:13.711Z,5.30
2023-05-02T10:14:13.691Z,9.30
2023-05-02T10:15:13.679Z,5.70
2023-05-02T10:16:13.699Z,9.90
2023-05-02T10:17:13.654Z,8.80
2023-05-02T10:18:13.689Z,5.60
2023-05-02T10:19:13.634Z,5.10
2023-05-02T10:20:13.623Z,3.40
2023-05-02T10:21:13.622Z,5.90
2023-05-02T10:22:13.734Z,6.10
2023-05-02T10:23:13.572Z,5.90
2023-05-02T10:24:13.593Z,5.40
2023-05-02T10:25:13.561Z,3.00
2023-05-02T10:26:13.552Z,5.00
2023-05-02T10:27:13.519Z,6.10
2023-05-02T10:28:13.507Z,5.70
2023-05-02T10:29:13.499Z,2.80
2023-05-02T10:30:13.489Z,4.00
2023-05-02T10:31:13.500Z,7.60
2023-05-02T10:32:13.468Z,6.70
2023-05-02T10:33:13.534Z,5.20
2023-05-02T10:34:13.444Z,3.30
2023-05-02T10:35:13.437Z,6.80
2023-05-02T10:36:13.423Z,5.80
2023-05-02T10:37:13.448Z,3.10
2023-05-02T10:38:13.380Z,6.80
2023-05-02T10:39:13.363Z,3.80
2023-05-02T10:40:13.362Z,5.90
2023-05-02T10:41:13.351Z,1.70
2023-05-02T10:42:13.328Z,7.40
2023-05-02T10:43:13.318Z,4.10
2023-05-02T10:44:13.316Z,3.50
2023-05-02T10:45:13.284Z,8.40
2023-05-02T10:46:13.346Z,5.30
2023-05-02T10:47:13.261Z,3.60
2023-05-02T10:48:13.338Z,4.40
2023-05-02T10:49:13.247Z,8.40
2023-05-02T10:50:13.223Z,5.50
2023-05-02T10:51:13.222Z,5.20
2023-05-02T10:52:13.203Z,4.70
2023-05-02T10:53:13.177Z,9.00
2023-05-02T10:54:13.168Z,5.60
2023-05-02T10:55:13.156Z,10.80
2023-05-02T10:56:13.164Z,8.40
2023-05-02T10:57:13.130Z,10.70
2023-05-02T10:58:13.128Z,6.10
2023-05-02T10:59:13.115Z,8.90
2023-05-02T11:00:13.109Z,6.70
2023-05-02T11:01:13.138Z,7.50
2023-05-02T11:02:13.101Z,8.20
2023-05-02T11:03:13.164Z,7.10
2023-05-02T11:04:13.050Z,8.30
2023-05-02T11:05:13.024Z,8.40
2023-05-02T11:06:13.048Z,8.70
2023-05-02T11:07:13.020Z,6.70
2023-05-02T11:08:12.989Z,10.50
2023-05-02T11:09:12.977Z,9.40
2023-05-02T11:10:12.974Z,7.70
2023-05-02T11:11:12.962Z,6.20
2023-05-02T11:12:12.939Z,9.20
2023-05-02T11:13:12.931Z,9.20
2023-05-02T11:14:13.964Z,8.90
2023-05-02T11:15:12.920Z,6.40
2023-05-02T11:16:12.961Z,10.60
2023-05-02T11:17:12.866Z,10.80
2023-05-02T11:18:13.318Z,7.70
2023-05-02T11:19:12.850Z,5.60
2023-05-02T11:20:12.858Z,6.80
2023-05-02T11:21:12.831Z,6.70
2023-05-02T11:22:12.819Z,7.80
2023-05-02T11:23:12.800Z,8.50
2023-05-02T11:24:12.789Z,9.90
2023-05-02T11:25:12.765Z,6.80
2023-05-02T11:26:12.782Z,7.00
2023-05-02T11:27:12.750Z,12.30
2023-05-02T11:28:12.743Z,9.80
2023-05-02T11:29:12.710Z,8.30
2023-05-02T11:30:12.854Z,8.60
2023-05-02T11:31:12.712Z,5.70
2023-05-02T11:32:12.737Z,10.90
2023-05-02T11:33:12.724Z,11.30
2023-05-02T11:34:12.669Z,8.40
2023-05-02T11:35:12.648Z,9.90
2023-05-02T11:36:12.787Z,7.60
2023-05-02T11:37:12.619Z,7.20
2023-05-02T11:38:12.658Z,7.70
2023-05-02T11:39:12.588Z,9.70
2023-05-02T11:40:12.639Z,7.80
2023-05-02T11:41:12.608Z,8.30
2023-05-02T11:42:12.551Z,8.80
2023-05-02T11:43:12.556Z,10.40
2023-05-02T11:44:12.575Z,7.80
2023-05-02T11:45:12.507Z,10.80
2023-05-02T11:46:12.517Z,10.20
2023-05-02T11:47:12.483Z,9.10
2023-05-02T11:48:12.505Z,8.60
2023-05-02T11:49:12.745Z,6.60
2023-05-02T11:50:12.534Z,9.50
2023-05-02T11:51:12.459Z,8.20
2023-05-02T11:52:12.426Z,8.40
2023-05-02T11:53:12.407Z,9.50
2023-05-02T11:54:12.397Z,8.00
2023-05-02T11:55:12.390Z,7.80
2023-05-02T11:56:12.397Z,12.50
2023-05-02T11:57:12.355Z,10.80
2023-05-02T11:58:12.343Z,8.00
2023-05-02T11:59:12.330Z,7.00
2023-05-02T12:00:12.357Z,7.70
2023-05-02T12:01:12.318Z,8.50
2023-05-02T12:02:12.364Z,10.00
2023-05-02T12:03:12.386Z,12.50
2023-05-02T12:04:12.272Z,12.00
2023-05-02T12:05:12.284Z,7.20
2023-05-02T12:06:12.788Z,8.50
2023-05-02T12:07:12.439Z,8.60
2023-05-02T12:08:12.214Z,9.40
2023-05-02T12:09:12.204Z,7.40
2023-05-02T12:10:12.222Z,7.10
2023-05-02T12:11:12.185Z,12.10
2023-05-02T12:12:12.172Z,10.30
2023-05-02T12:13:12.156Z,11.20
2023-05-02T12:14:12.137Z,7.40
2023-05-02T12:15:12.121Z,9.90
2023-05-02T12:16:12.146Z,7.20
2023-05-02T12:17:12.102Z,10.90
2023-05-02T12:18:12.157Z,9.70
2023-05-02T12:19:12.070Z,8.60
2023-05-02T12:20:12.118Z,11.80
2023-05-02T12:21:12.060Z,7.80
2023-05-02T12:22:12.045Z,9.70
2023-05-02T12:23:12.020Z,9.70
2023-05-02T12:24:12.008Z,9.70
2023-05-02T12:25:12.030Z,10.90
2023-05-02T12:26:12.002Z,11.30
2023-05-02T12:27:11.972Z,9.70
2023-05-02T12:28:11.955Z,7.00
2023-05-02T12:29:11.940Z,11.80
2023-05-02T12:30:11.939Z,7.60
2023-05-02T12:31:11.951Z,8.90
2023-05-02T12:32:11.915Z,12.50
2023-05-02T12:33:11.973Z,10.10
2023-05-02T12:34:11.875Z,13.70
2023-05-02T12:35:11.871Z,10.30
2023-05-02T12:36:11.870Z,7.90
2023-05-02T12:37:11.924Z,8.80
2023-05-02T12:38:11.824Z,10.20
2023-05-02T12:39:11.815Z,9.60
2023-05-02T12:40:11.797Z,10.30
2023-05-02T12:41:11.793Z,10.60
2023-05-02T12:42:11.812Z,9.90
2023-05-02T12:43:11.756Z,10.90
2023-05-02T12:44:11.760Z,8.50
2023-05-02T12:45:11.727Z,9.40
2023-05-02T12:46:11.733Z,11.00
2023-05-02T12:47:11.738Z,9.20
2023-05-02T12:48:11.757Z,11.20
2023-05-02T12:49:11.678Z,10.50
2023-05-02T12:50:11.675Z,10.70
2023-05-02T12:51:11.669Z,9.10
2023-05-02T12:52:11.645Z,11.10
2023-05-02T12:53:11.635Z,11.10
2023-05-02T12:54:11.624Z,7.90
2023-05-02T12:55:11.600Z,9.40
2023-05-02T12:56:11.616Z,8.90
2023-05-02T12:57:11.578Z,10.80
2023-05-02T12:58:11.564Z,8.70
2023-05-02T12:59:11.553Z,8.40
2023-05-02T13:00:11.556Z,10.90
2023-05-02T13:01:11.569Z,6.10
2023-05-02T13:02:11.515Z,8.70
2023-05-02T13:03:11.575Z,10.90
2023-05-02T13:04:11.508Z,9.60
2023-05-02T13:05:11.491Z,8.60
2023-05-02T13:06:11.545Z,6.80
2023-05-02T13:07:11.451Z,11.30
2023-05-02T13:08:11.437Z,6.80
2023-05-02T13:09:11.419Z,8.30
2023-05-02T13:10:11.410Z,5.80
2023-05-02T13:11:11.404Z,9.70
2023-05-02T13:12:11.383Z,7.00
2023-05-02T13:13:11.376Z,10.50
2023-05-02T13:14:11.366Z,10.90
2023-05-02T13:15:11.380Z,9.60
2023-05-02T13:16:11.506Z,11.90
2023-05-02T13:17:11.419Z,10.50
2023-05-02T13:18:11.399Z,8.70
2023-05-02T13:19:11.302Z,7.60
2023-05-02T13:20:11.285Z,7.90
2023-05-02T13:21:11.272Z,7.60
2023-05-02T13:22:11.257Z,8.00
2023-05-02T13:23:11.233Z,9.60
2023-05-02T13:24:11.231Z,8.80
2023-05-02T13:25:11.233Z,6.40
2023-05-02T13:26:11.215Z,9.30
2023-05-02T13:27:11.185Z,11.60
2023-05-02T13:28:11.173Z,7.90
2023-05-02T13:29:11.159Z,8.00
2023-05-02T13:30:11.621Z,10.90
2023-05-02T13:31:11.204Z,9.90
2023-05-02T13:32:11.122Z,8.40
2023-05-02T13:33:11.101Z,8.40
2023-05-02T13:34:11.100Z,11.80
2023-05-02T13:35:11.078Z,9.90
2023-05-02T13:36:11.085Z,6.80
2023-05-02T13:37:11.051Z,7.20
2023-05-02T13:38:11.044Z,10.40
2023-05-02T13:39:11.033Z,6.80
2023-05-02T13:40:11.022Z,10.10
2023-05-02T13:41:11.021Z,6.60
2023-05-02T13:42:10.989Z,6.30
2023-05-02T13:43:10.976Z,9.40
2023-05-02T13:44:10.972Z,10.00
2023-05-02T13:45:10.961Z,5.80
2023-05-02T13:46:10.982Z,8.30
2023-05-02T13:47:10.923Z,8.30
2023-05-02T13:48:11.008Z,8.80
2023-05-02T13:49:10.917Z,13.20
2023-05-02T13:50:10.898Z,13.10
2023-05-02T13:51:10.883Z,21.30
2023-05-02T13:52:10.875Z,15.90
2023-05-02T13:53:10.845Z,17.90
2023-05-02T13:54:10.834Z,15.90
2023-05-02T13:55:10.832Z,10.30
2023-05-02T13:56:10.825Z,8.80
2023-05-02T13:57:10.797Z,11.70
2023-05-02T13:58:10.787Z,15.50
2023-05-02T13:59:11.376Z,10.50
2023-05-02T14:00:10.765Z,10.20
2023-05-02T14:01:10.797Z,8.60
2023-05-02T14:02:10.757Z,8.10
2023-05-02T14:03:10.797Z,7.10
2023-05-02T14:04:10.998Z,7.90
2023-05-02T14:05:10.709Z,7.90
2023-05-02T14:06:10.745Z,8.10
2023-05-02T14:07:10.662Z,8.90
2023-05-02T14:08:10.655Z,10.70
2023-05-02T14:09:10.656Z,6.70
2023-05-02T14:10:10.634Z,7.70
2023-05-02T14:11:10.653Z,10.50
2023-05-02T14:12:10.629Z,8.40
2023-05-02T14:13:10.591Z,6.90
2023-05-02T14:14:10.598Z,7.00
2023-05-02T14:15:10.572Z,13.90
2023-05-02T14:16:10.584Z,6.60
2023-05-02T14:17:10.562Z,5.70
2023-05-02T14:18:10.582Z,11.70
2023-05-02T14:19:10.517Z,6.10
2023-05-02T14:20:10.731Z,5.50
2023-05-02T14:21:10.490Z,9.60
2023-05-02T14:22:10.477Z,9.30
2023-05-02T14:23:10.458Z,9.10
2023-05-02T14:24:10.467Z,8.80
2023-05-02T14:25:10.441Z,5.70
2023-05-02T14:26:10.423Z,7.80
2023-05-02T14:27:10.405Z,9.70
2023-05-02T14:28:10.428Z,7.00
2023-05-02T14:29:10.392Z,12.60
2023-05-02T14:30:10.382Z,10.70
2023-05-02T14:31:10.391Z,6.90
2023-05-02T14:32:10.391Z,5.90
2023-05-02T14:33:10.358Z,8.30
2023-05-02T14:34:10.323Z,7.90
2023-05-02T14:35:10.384Z,7.80
2023-05-02T14:36:10.285Z,5.90
2023-05-02T14:37:10.275Z,7.70
2023-05-02T14:38:10.287Z,6.70
2023-05-02T14:39:10.247Z,4.90
2023-05-02T14:40:10.261Z,8.00
2023-05-02T14:41:10.220Z,8.90
2023-05-02T14:42:10.224Z,8.80
2023-05-02T14:43:10.449Z,10.60
2023-05-02T14:44:10.187Z,9.90
2023-05-02T14:45:10.197Z,7.60
2023-05-02T14:46:10.170Z,9.80
2023-05-02T14:47:10.211Z,6.10
2023-05-02T14:48:11.060Z,5.90
2023-05-02T14:49:10.113Z,6.70
2023-05-02T14:50:10.128Z,8.50
2023-05-02T14:51:10.089Z,7.20
2023-05-02T14:52:10.083Z,7.90
2023-05-02T14:53:10.066Z,6.50
2023-05-02T14:54:10.055Z,7.30
2023-05-02T14:55:10.051Z,11.40
2023-05-02T14:56:10.030Z,8.70
2023-05-02T14:57:10.026Z,10.50
2023-05-02T14:58:10.031Z,8.70
2023-05-02T14:59:10.888Z,5.60
2023-05-02T15:00:10.153Z,10.70
2023-05-02T15:01:09.988Z,10.20
2023-05-02T15:02:10.017Z,6.90
2023-05-02T15:03:10.105Z,8.20
2023-05-02T15:04:10.356Z,10.70
2023-05-02T15:05:09.961Z,9.60
2023-05-02T15:06:09.971Z,10.10
2023-05-02T15:07:09.939Z,11.50
2023-05-02T15:08:09.878Z,7.80
2023-05-02T15:09:09.861Z,8.70
2023-05-02T15:10:09.864Z,8.50
2023-05-02T15:11:09.837Z,8.20
2023-05-02T15:12:09.819Z,7.00
2023-05-02T15:13:09.818Z,8.80
2023-05-02T15:14:09.802Z,11.10
2023-05-02T15:15:09.795Z,9.40
2023-05-02T15:16:09.816Z,9.80
2023-05-02T15:17:10.053Z,11.20
2023-05-02T15:18:09.808Z,7.60
2023-05-02T15:19:09.727Z,9.00
2023-05-02T15:20:09.741Z,7.70
2023-05-02T15:21:09.699Z,7.30
2023-05-02T15:22:09.686Z,9.10
2023-05-02T15:23:09.680Z,12.80
2023-05-02T15:24:09.670Z,10.50
2023-05-02T15:25:09.680Z,9.30
2023-05-02T15:26:09.644Z,6.70
2023-05-02T15:27:09.657Z,6.80
2023-05-02T15:28:09.615Z,8.30
2023-05-02T15:29:09.599Z,9.20
2023-05-02T15:30:09.611Z,11.00
2023-05-02T15:31:09.573Z,9.00
2023-05-02T15:32:09.621Z,5.90
2023-05-02T15:33:09.702Z,9.30
2023-05-02T15:34:09.545Z,9.70
2023-05-02T15:35:09.536Z,4.90
2023-05-02T15:36:09.522Z,5.90
2023-05-02T15:37:09.505Z,7.00
2023-05-02T15:38:09.499Z,10.10
2023-05-02T15:39:09.478Z,9.00
2023-05-02T15:40:09.564Z,10.40
2023-05-02T15:41:09.450Z,10.50
2023-05-02T15:42:09.442Z,8.40
2023-05-02T15:43:09.429Z,10.10
2023-05-02T15:44:09.424Z,9.50
2023-05-02T15:45:09.414Z,7.30
2023-05-02T15:46:09.409Z,8.80
2023-05-02T15:47:09.380Z,6.00
2023-05-02T15:48:09.413Z,9.10
2023-05-02T15:49:09.348Z,7.70
2023-05-02T15:50:09.350Z,5.10
2023-05-02T15:51:09.330Z,8.10
2023-05-02T15:52:09.316Z,7.00
2023-05-02T15:53:09.305Z,9.80
2023-05-02T15:54:09.292Z,7.70
2023-05-02T15:55:09.284Z,7.10
2023-05-02T15:56:09.261Z,6.30
2023-05-02T15:57:09.255Z,5.60
2023-05-02T15:58:09.242Z,6.20
2023-05-02T15:59:09.218Z,8.50
2023-05-02T16:00:09.221Z,6.40
2023-05-02T16:01:09.239Z,8.10
2023-05-02T16:02:09.198Z,6.10
2023-05-02T16:03:09.219Z,6.40
2023-05-02T16:04:09.233Z,5.70
2023-05-02T16:05:09.161Z,5.80
2023-05-02T16:06:09.158Z,4.30
2023-05-02T16:07:09.112Z,9.80
2023-05-02T16:08:09.122Z,4.40
2023-05-02T16:09:09.091Z,8.10
2023-05-02T16:10:09.113Z,4.90
2023-05-02T16:11:09.062Z,9.60
2023-05-02T16:12:09.057Z,7.50
2023-05-02T16:13:09.040Z,6.40
2023-05-02T16:14:09.037Z,6.50
2023-05-02T16:15:09.027Z,6.50
2023-05-02T16:16:09.032Z,8.80
2023-05-02T16:17:08.995Z,5.40
2023-05-02T16:18:09.011Z,8.90
2023-05-02T16:19:08.963Z,7.00
2023-05-02T16:20:10.036Z,6.50
2023-05-02T16:21:08.944Z,6.90
2023-05-02T16:22:08.927Z,6.60
2023-05-02T16:23:08.921Z,7.60
2023-05-02T16:24:08.898Z,3.70
2023-05-02T16:25:08.913Z,6.70
2023-05-02T16:26:08.871Z,7.70
2023-05-02T16:27:08.863Z,8.70
2023-05-02T16:28:08.858Z,6.20
2023-05-02T16:29:08.846Z,5.90
2023-05-02T16:30:08.824Z,6.20
2023-05-02T16:31:08.847Z,7.30
2023-05-02T16:32:08.809Z,8.00
2023-05-02T16:33:08.834Z,5.90
2023-05-02T16:34:08.798Z,6.20
2023-05-02T16:35:08.759Z,7.50
2023-05-02T16:36:08.750Z,6.10
2023-05-02T16:37:08.742Z,6.20
2023-05-02T16:38:08.736Z,4.40
2023-05-02T16:39:08.720Z,7.50
2023-05-02T16:40:08.842Z,2.80
2023-05-02T16:41:08.696Z,5.00
2023-05-02T16:42:08.694Z,3.60
2023-05-02T16:43:08.678Z,3.70
2023-05-02T16:44:08.655Z,5.80
2023-05-02T16:45:08.640Z,3.80
2023-05-02T16:46:08.624Z,3.30
2023-05-02T16:47:08.692Z,5.80
2023-05-02T16:48:08.605Z,3.40
2023-05-02T16:49:08.634Z,5.30
2023-05-02T16:50:08.573Z,5.40
2023-05-02T16:51:08.568Z,5.50
2023-05-02T16:52:08.539Z,4.90
2023-05-02T16:53:08.525Z,6.00
2023-05-02T16:54:08.679Z,4.70
2023-05-02T16:55:08.509Z,6.60
2023-05-02T16:56:08.488Z,6.70
2023-05-02T16:57:08.499Z,4.30
2023-05-02T16:58:08.458Z,6.80
2023-05-02T16:59:08.466Z,4.10
2023-05-02T17:00:08.442Z,6.70
2023-05-02T17:01:08.438Z,5.30
2023-05-02T17:02:08.437Z,5.60
2023-05-02T17:03:08.805Z,6.20
2023-05-02T17:04:08.476Z,6.00
2023-05-02T17:05:08.376Z,6.20
2023-05-02T17:06:08.362Z,5.60
2023-05-02T17:07:08.342Z,6.10
2023-05-02T17:08:09.172Z,5.50
2023-05-02T17:09:08.334Z,5.10
2023-05-02T17:10:08.297Z,5.30
2023-05-02T17:11:08.299Z,6.40
2023-05-02T17:12:08.296Z,10.00
2023-05-02T17:13:08.267Z,7.00
2023-05-02T17:14:08.261Z,6.80
2023-05-02T17:15:15.324Z,6.70
2023-05-02T17:16:08.480Z,7.10
2023-05-02T17:17:08.472Z,5.40
2023-05-02T17:18:08.248Z,4.90
2023-05-02T17:19:08.198Z,5.80
2023-05-02T17:20:08.177Z,4.70
2023-05-02T17:21:08.174Z,4.60
2023-05-02T17:22:08.147Z,4.80
2023-05-02T17:23:08.168Z,6.40
2023-05-02T17:24:08.133Z,4.20
2023-05-02T17:25:08.124Z,6.30